20 de mayo de 2022

Hora Código Tiempo Temp. Visibilidad Nubes Viento METAR/SPECI
10:20
V
16 °C 10 km+ 30.000 ft Var   Var 2 kt METAR ETND 200820Z VRB02KT 9999 SCT020 BKN300 16/10 Q1021 BLU+FCST CANCEL
09:20
V
16 °C 10 km+ 25.000 ft 170°   170° 4 kt METAR ETND 200720Z 17004KT 9999 SCT016 BKN250 16/10 Q1021 BLU+BLU+
08:20
M
14 °C 10 km+ 1.500 ft 230°   230° 5 kt METAR ETND 200620Z 23005KT 9999 FEW010 BKN015 14/10 Q1022 WHT WHT BECMG BLU+
07:20
M
13 °C 10 km+ 1.500 ft 220°   220° 3 kt METAR ETND 200520Z 22003KT 9999 SCT010 BKN015 13/11 Q1022 WHT WHT TEMPO GRN
Datos más antiguos

Descarga nuestra aplicación

Acceso fácil a todo el tiempo de la aviación en tu teléfono móvil y tableta.
Con muchas funciones no disponibles en el sitio web, como la compatibilidad sin conexión y una lista personal de aeropuertos.

Nosotros y terceros seguimos tu comportamiento en Internet en nuestro sitio web con cookies. Si continúas, asumimos que estás de acuerdo con nuestra política de cookies. Más información